createdAt,value
2022-12-15T00:02:07.262Z,98071.66
2022-12-15T00:04:57.462Z,98067.00
2022-12-15T00:07:47.789Z,98067.38
2022-12-15T00:10:38.715Z,98069.84
2022-12-15T00:13:31.117Z,98070.78
2022-12-15T00:16:21.481Z,98071.22
2022-12-15T00:19:11.921Z,98078.75
2022-12-15T00:22:01.783Z,98082.63
2022-12-15T00:24:54.145Z,98078.50
2022-12-15T00:27:44.216Z,98079.09
2022-12-15T00:30:34.407Z,98074.97
2022-12-15T00:33:31.048Z,98074.25
2022-12-15T00:36:21.649Z,98076.19
2022-12-15T00:38:53.172Z,98080.25
2022-12-15T00:41:24.716Z,98079.09
2022-12-15T00:43:56.269Z,98078.13
2022-12-15T00:46:46.658Z,98087.53
2022-12-15T00:49:47.680Z,98083.44
2022-12-15T00:52:37.930Z,98097.06
2022-12-15T00:55:28.116Z,98093.91
2022-12-15T00:58:18.444Z,98095.69
2022-12-15T01:01:08.701Z,98102.91
2022-12-15T01:03:58.953Z,98105.28
2022-12-15T01:06:49.186Z,98106.25
2022-12-15T01:09:39.116Z,98112.50
2022-12-15T01:12:29.293Z,98109.22
2022-12-15T01:15:19.242Z,98115.72
2022-12-15T01:18:09.100Z,98121.28
2022-12-15T01:20:40.680Z,98129.63
2022-12-15T01:23:12.236Z,98137.88
2022-12-15T01:25:45.816Z,98147.63
2022-12-15T01:28:22.298Z,98153.91
2022-12-15T01:30:53.915Z,98157.69
2022-12-15T01:33:25.481Z,98147.81
2022-12-15T01:35:59.172Z,98150.97
2022-12-15T01:38:30.821Z,98154.97
2022-12-15T01:41:05.993Z,98162.28
2022-12-15T01:43:40.167Z,98156.53
2022-12-15T01:46:18.219Z,98158.50
2022-12-15T01:49:00.134Z,98151.81
2022-12-15T01:51:39.407Z,98148.75
2022-12-15T01:54:19.826Z,98155.94
2022-12-15T01:56:56.950Z,98164.03
2022-12-15T01:59:39.032Z,98165.22
2022-12-15T02:02:12.457Z,98165.69
2022-12-15T02:04:45.629Z,98168.50
2022-12-15T02:07:18.355Z,98167.19
2022-12-15T02:09:52.314Z,98173.53
2022-12-15T02:12:45.810Z,98172.09
2022-12-15T02:15:32.333Z,98180.22
2022-12-15T02:18:32.448Z,98175.38
2022-12-15T02:21:42.517Z,98177.59
2022-12-15T02:24:35.053Z,98185.69
2022-12-15T02:27:15.865Z,98188.00
2022-12-15T02:30:10.089Z,98189.28
2022-12-15T02:32:54.594Z,98195.38
2022-12-15T02:35:44.818Z,98207.47
2022-12-15T02:38:28.558Z,98223.78
2022-12-15T02:41:02.228Z,98228.13
2022-12-15T02:43:38.853Z,98235.19
2022-12-15T02:46:35.426Z,98228.47
2022-12-15T02:49:17.996Z,98217.56
2022-12-15T02:51:52.574Z,98220.97
2022-12-15T02:54:54.817Z,98230.38
2022-12-15T02:57:44.333Z,98240.56
2022-12-15T03:00:17.652Z,98248.94
2022-12-15T03:02:53.593Z,98242.00
2022-12-15T03:05:25.896Z,98240.84
2022-12-15T03:07:57.873Z,98246.59
2022-12-15T03:10:29.564Z,98247.91
2022-12-15T03:13:01.120Z,98242.63
2022-12-15T03:15:35.466Z,98246.63
2022-12-15T03:18:07.373Z,98248.53
2022-12-15T03:20:40.093Z,98250.97
2022-12-15T03:23:11.775Z,98256.03
2022-12-15T03:25:46.525Z,98260.75
2022-12-15T03:28:21.863Z,98254.44
2022-12-15T03:30:53.383Z,98249.28
2022-12-15T03:33:25.085Z,98258.56
2022-12-15T03:35:56.736Z,98262.53
2022-12-15T03:38:28.368Z,98260.69
2022-12-15T03:40:59.882Z,98272.56
2022-12-15T03:43:31.823Z,98280.31
2022-12-15T03:46:03.824Z,98275.16
2022-12-15T03:48:35.456Z,98284.78
2022-12-15T03:51:07.092Z,98284.97
2022-12-15T03:53:38.684Z,98295.91
2022-12-15T03:56:10.315Z,98298.56
2022-12-15T03:58:41.871Z,98300.22
2022-12-15T04:01:26.350Z,98308.47
2022-12-15T04:04:01.294Z,98303.19
2022-12-15T04:06:33.277Z,98307.53
2022-12-15T04:09:04.913Z,98306.22
2022-12-15T04:11:36.476Z,98307.75
2022-12-15T04:14:09.396Z,98310.22
2022-12-15T04:16:40.992Z,98312.22
2022-12-15T04:19:31.219Z,98317.25
2022-12-15T04:22:03.658Z,98324.69
2022-12-15T04:24:53.874Z,98333.38
2022-12-15T04:27:44.176Z,98334.06
2022-12-15T04:30:35.003Z,98337.28
2022-12-15T04:33:30.637Z,98337.72
2022-12-15T04:36:21.669Z,98343.09
2022-12-15T04:39:11.792Z,98350.06
2022-12-15T04:42:02.030Z,98342.06
2022-12-15T04:44:51.971Z,98341.13
2022-12-15T04:47:42.079Z,98342.56
2022-12-15T04:50:32.627Z,98348.09
2022-12-15T04:53:31.808Z,98335.28
2022-12-15T04:56:28.852Z,98342.84
2022-12-15T04:59:19.322Z,98355.53
2022-12-15T05:02:10.055Z,98358.44
2022-12-15T05:05:00.338Z,98355.13
2022-12-15T05:07:50.482Z,98360.53
2022-12-15T05:10:40.735Z,98362.72
2022-12-15T05:13:31.254Z,98356.34
2022-12-15T05:16:23.862Z,98369.91
2022-12-15T05:19:14.276Z,98369.06
2022-12-15T05:22:04.499Z,98377.03
2022-12-15T05:24:54.830Z,98384.88
2022-12-15T05:27:44.740Z,98385.69
2022-12-15T05:30:35.446Z,98385.69
2022-12-15T05:33:07.073Z,98387.78
2022-12-15T05:35:38.894Z,98400.13
2022-12-15T05:38:10.603Z,98397.19
2022-12-15T05:40:42.623Z,98406.28
2022-12-15T05:43:14.223Z,98413.44
2022-12-15T05:45:45.792Z,98420.88
2022-12-15T05:48:17.568Z,98415.50
2022-12-15T05:50:50.599Z,98424.81
2022-12-15T05:53:22.277Z,98429.28
2022-12-15T05:56:01.433Z,98432.56
2022-12-15T05:58:33.172Z,98426.28
2022-12-15T06:01:04.770Z,98434.03
2022-12-15T06:03:36.388Z,98430.88
2022-12-15T06:06:09.345Z,98428.00
2022-12-15T06:08:42.469Z,98426.34
2022-12-15T06:11:16.482Z,98420.16
2022-12-15T06:13:48.745Z,98433.78
2022-12-15T06:16:21.942Z,98436.28
2022-12-15T06:18:57.185Z,98452.47
2022-12-15T06:21:31.707Z,98454.63
2022-12-15T06:24:07.348Z,98468.09
2022-12-15T06:26:43.317Z,98468.59
2022-12-15T06:29:15.604Z,98469.91
2022-12-15T06:31:47.535Z,98481.91
2022-12-15T06:34:19.226Z,98493.88
2022-12-15T06:36:50.886Z,98499.25
2022-12-15T06:39:22.454Z,98495.03
2022-12-15T06:41:54.036Z,98498.53
2022-12-15T06:44:28.562Z,98497.69
2022-12-15T06:47:00.252Z,98491.72
2022-12-15T06:49:32.052Z,98488.31
2022-12-15T06:52:03.680Z,98487.50
2022-12-15T06:54:35.245Z,98490.78
2022-12-15T06:57:06.819Z,98504.63
2022-12-15T06:59:39.212Z,98513.34
2022-12-15T07:02:16.928Z,98524.28
2022-12-15T07:04:48.663Z,98524.59
2022-12-15T07:07:20.582Z,98534.09
2022-12-15T07:09:52.154Z,98545.19
2022-12-15T07:12:23.742Z,98540.63
2022-12-15T07:14:55.310Z,98535.03
2022-12-15T07:17:26.991Z,98536.59
2022-12-15T07:19:58.572Z,98528.63
2022-12-15T07:22:33.648Z,98531.63
2022-12-15T07:25:05.814Z,98537.09
2022-12-15T07:27:37.484Z,98524.25
2022-12-15T07:30:09.533Z,98539.41
2022-12-15T07:32:41.848Z,98537.03
2022-12-15T07:35:13.449Z,98535.88
2022-12-15T07:37:45.306Z,98533.22
2022-12-15T07:40:17.533Z,98533.31
2022-12-15T07:42:49.109Z,98535.00
2022-12-15T07:45:21.879Z,98540.69
2022-12-15T07:47:53.589Z,98542.72
2022-12-15T07:50:25.164Z,98549.88
2022-12-15T07:52:58.012Z,98560.25
2022-12-15T07:55:57.356Z,98564.38
2022-12-15T07:58:21.202Z,98555.59
2022-12-15T08:01:01.861Z,98559.78
2022-12-15T08:03:34.221Z,98564.88
2022-12-15T08:06:08.201Z,98579.41
2022-12-15T08:08:40.568Z,98580.47
2022-12-15T08:11:14.685Z,98594.03
2022-12-15T08:14:03.558Z,98593.56
2022-12-15T08:16:36.948Z,98601.81
2022-12-15T08:19:13.165Z,98601.34
2022-12-15T08:21:46.777Z,98597.47
2022-12-15T08:24:19.397Z,98581.28
2022-12-15T08:26:51.006Z,98582.09
2022-12-15T08:29:50.315Z,98578.88
2022-12-15T08:32:16.855Z,98575.09
2022-12-15T08:34:49.761Z,98568.00
2022-12-15T08:37:21.402Z,98570.00
2022-12-15T08:39:53.109Z,98578.38
2022-12-15T08:42:24.804Z,98591.88
2022-12-15T08:44:56.571Z,98594.22
2022-12-15T08:47:28.236Z,98595.28
2022-12-15T08:49:59.996Z,98601.69
2022-12-15T08:52:31.881Z,98597.66
2022-12-15T08:55:03.891Z,98596.41
2022-12-15T08:57:43.166Z,98582.78
2022-12-15T09:00:16.093Z,98585.22
2022-12-15T09:02:47.823Z,98582.50
2022-12-15T09:05:19.682Z,98596.91
2022-12-15T09:08:04.654Z,98591.13
2022-12-15T09:10:47.654Z,98597.59
2022-12-15T09:13:24.908Z,98586.81
2022-12-15T09:16:13.333Z,98591.16
2022-12-15T09:18:47.944Z,98593.47
2022-12-15T09:21:25.197Z,98595.41
2022-12-15T09:24:00.877Z,98595.00
2022-12-15T09:26:34.579Z,98594.66
2022-12-15T09:29:06.320Z,98599.78
2022-12-15T09:31:39.006Z,98593.69
2022-12-15T09:34:14.990Z,98587.81
2022-12-15T09:36:46.619Z,98587.81
2022-12-15T09:39:18.487Z,98586.69
2022-12-15T09:41:55.049Z,98593.75
2022-12-15T09:44:28.980Z,98592.66
2022-12-15T09:47:22.077Z,98593.72
2022-12-15T09:49:59.229Z,98590.50
2022-12-15T09:52:39.672Z,98592.22
2022-12-15T09:55:23.264Z,98593.88
2022-12-15T09:58:14.214Z,98615.28
2022-12-15T10:00:58.166Z,98609.78
2022-12-15T10:03:55.646Z,98615.72
2022-12-15T10:06:35.980Z,98606.16
2022-12-15T10:09:21.454Z,98611.94
2022-12-15T10:12:11.954Z,98604.63
2022-12-15T10:14:50.140Z,98607.03
2022-12-15T10:17:26.246Z,98602.34
2022-12-15T10:20:13.295Z,98608.47
2022-12-15T10:22:45.126Z,98600.13
2022-12-15T10:28:52.293Z,98617.25
2022-12-15T10:31:45.135Z,98623.56
2022-12-15T10:34:43.565Z,98632.00
2022-12-15T10:37:18.924Z,98632.56
2022-12-15T10:39:51.312Z,98636.00
2022-12-15T10:42:27.196Z,98636.56
2022-12-15T10:44:59.213Z,98637.09
2022-12-15T10:47:32.075Z,98639.75
2022-12-15T10:50:25.091Z,98629.72
2022-12-15T10:52:57.073Z,98620.91
2022-12-15T10:55:36.005Z,98601.59
2022-12-15T10:58:20.746Z,98593.50
2022-12-15T11:01:14.972Z,98591.16
2022-12-15T11:03:51.507Z,98587.91
2022-12-15T11:06:33.767Z,98592.84
2022-12-15T11:09:35.885Z,98576.28
2022-12-15T11:12:50.721Z,98559.34
2022-12-15T11:15:22.377Z,98559.81
2022-12-15T11:18:02.790Z,98556.44
2022-12-15T11:20:38.489Z,98559.06
2022-12-15T11:23:30.470Z,98552.09
2022-12-15T11:26:14.085Z,98556.28
2022-12-15T11:28:56.368Z,98543.22
2022-12-15T11:31:40.248Z,98546.22
2022-12-15T11:34:17.819Z,98554.19
2022-12-15T11:37:14.677Z,98545.50
2022-12-15T11:40:15.382Z,98558.19
2022-12-15T11:42:52.865Z,98556.97
2022-12-15T11:45:44.659Z,98547.13
2022-12-15T11:48:21.283Z,98552.47
2022-12-15T11:50:59.840Z,98538.25
2022-12-15T11:53:50.298Z,98541.66
2022-12-15T11:56:31.328Z,98552.19
2022-12-15T11:59:21.245Z,98564.34
2022-12-15T12:02:02.479Z,98581.06
2022-12-15T12:04:58.077Z,98574.31
2022-12-15T12:07:45.314Z,98564.81
2022-12-15T12:10:44.997Z,98571.13
2022-12-15T12:13:50.353Z,98552.53
2022-12-15T12:16:30.759Z,98555.59
2022-12-15T12:19:06.447Z,98564.69
2022-12-15T12:21:44.970Z,98568.66
2022-12-15T12:24:26.372Z,98566.72
2022-12-15T12:27:22.467Z,98559.72
2022-12-15T12:30:02.689Z,98571.78
2022-12-15T12:32:59.899Z,98574.25
2022-12-15T12:35:47.120Z,98565.25
2022-12-15T12:38:29.322Z,98569.47
2022-12-15T12:41:23.491Z,98570.53
2022-12-15T12:43:58.218Z,98566.78
2022-12-15T12:46:39.201Z,98559.69
2022-12-15T12:49:33.419Z,98567.53
2022-12-15T12:52:13.717Z,98572.19
2022-12-15T12:55:01.988Z,98576.59
2022-12-15T12:57:36.599Z,98588.19
2022-12-15T13:00:08.216Z,98588.88
2022-12-15T13:03:13.423Z,98584.81
2022-12-15T13:05:50.428Z,98591.69
2022-12-15T13:08:45.282Z,98593.63
2022-12-15T13:11:45.475Z,98590.41
2022-12-15T13:14:25.907Z,98602.03
2022-12-15T13:17:26.062Z,98602.00
2022-12-15T13:20:01.310Z,98601.03
2022-12-15T13:22:34.236Z,98604.28
2022-12-15T13:25:35.838Z,98608.47
2022-12-15T13:28:18.708Z,98611.00
2022-12-15T13:31:21.324Z,98606.31
2022-12-15T13:34:01.223Z,98622.59
2022-12-15T13:36:42.030Z,98636.41
2022-12-15T13:39:16.301Z,98649.19
2022-12-15T13:42:23.765Z,98644.72
2022-12-15T13:44:51.811Z,98632.25
2022-12-15T13:47:28.022Z,98637.44
2022-12-15T13:50:08.540Z,98637.38
2022-12-15T13:56:07.098Z,98641.31
2022-12-15T13:58:47.891Z,98645.22
2022-12-15T14:01:30.153Z,98637.06
2022-12-15T14:04:15.621Z,98633.28
2022-12-15T14:07:00.738Z,98638.94
2022-12-15T14:09:41.899Z,98639.53
2022-12-15T14:12:14.166Z,98634.13
2022-12-15T14:17:39.334Z,98615.25
2022-12-15T14:20:17.922Z,98615.00
2022-12-15T14:22:52.353Z,98610.16
2022-12-15T14:25:29.663Z,98618.50
2022-12-15T14:28:07.761Z,98623.38
2022-12-15T14:30:42.380Z,98627.34
2022-12-15T14:33:18.200Z,98635.03
2022-12-15T14:35:53.498Z,98622.66
2022-12-15T14:38:32.095Z,98619.31
2022-12-15T14:41:06.115Z,98618.00
2022-12-15T14:43:40.045Z,98620.59
2022-12-15T14:46:18.706Z,98624.81
2022-12-15T14:49:01.010Z,98616.56
2022-12-15T14:51:44.183Z,98615.66
2022-12-15T14:54:38.270Z,98618.88
2022-12-15T14:57:15.362Z,98625.41
2022-12-15T14:59:54.448Z,98639.44
2022-12-15T15:02:29.562Z,98645.31
2022-12-15T15:03:03.980Z,98604.97
2022-12-15T15:05:04.693Z,98640.75
2022-12-15T15:07:38.701Z,98641.06
2022-12-15T15:10:27.954Z,98649.47
2022-12-15T15:12:59.766Z,98646.53
2022-12-15T15:15:31.482Z,98646.31
2022-12-15T15:18:03.124Z,98641.44
2022-12-15T15:20:35.986Z,98640.13
2022-12-15T15:23:07.498Z,98638.59
2022-12-15T15:25:41.570Z,98635.75
2022-12-15T15:28:17.979Z,98641.25
2022-12-15T15:30:59.315Z,98652.38
2022-12-15T15:33:31.508Z,98652.91
2022-12-15T15:36:04.311Z,98650.53
2022-12-15T15:38:39.547Z,98656.25
2022-12-15T15:41:14.011Z,98657.66
2022-12-15T15:43:46.079Z,98640.03
2022-12-15T15:46:27.687Z,98634.97
2022-12-15T15:49:03.068Z,98641.63
2022-12-15T15:51:38.253Z,98632.56
2022-12-15T15:54:25.032Z,98634.41
2022-12-15T15:56:56.647Z,98628.19
2022-12-15T15:59:29.015Z,98622.91
2022-12-15T16:02:02.180Z,98617.63
2022-12-15T16:04:36.321Z,98627.72
2022-12-15T16:07:20.693Z,98621.75
2022-12-15T16:09:53.435Z,98632.63
2022-12-15T16:12:33.472Z,98636.47
2022-12-15T16:15:23.777Z,98640.91
2022-12-15T16:17:55.522Z,98650.97
2022-12-15T16:20:29.179Z,98654.50
2022-12-15T16:23:05.584Z,98652.94
2022-12-15T16:25:48.498Z,98663.69
2022-12-15T16:28:25.114Z,98668.59
2022-12-15T16:30:58.794Z,98673.13
2022-12-15T16:33:30.440Z,98667.44
2022-12-15T16:36:02.157Z,98659.69
2022-12-15T16:38:34.214Z,98660.00
2022-12-15T16:41:08.276Z,98655.56
2022-12-15T16:43:46.031Z,98658.56
2022-12-15T16:46:20.563Z,98663.31
2022-12-15T16:48:52.297Z,98660.09
2022-12-15T16:51:40.189Z,98667.25
2022-12-15T16:54:24.297Z,98673.16
2022-12-15T16:56:58.078Z,98674.50
2022-12-15T16:59:34.326Z,98679.84
2022-12-15T17:02:29.088Z,98678.22
2022-12-15T17:05:00.938Z,98674.91
2022-12-15T17:07:32.670Z,98684.19
2022-12-15T17:10:05.461Z,98686.34
2022-12-15T17:12:37.244Z,98681.09
2022-12-15T17:15:20.608Z,98679.03
2022-12-15T17:17:53.092Z,98676.25
2022-12-15T17:20:30.040Z,98677.69
2022-12-15T17:23:07.170Z,98676.34
2022-12-15T17:28:36.725Z,98680.19
2022-12-15T17:31:18.138Z,98685.75
2022-12-15T17:33:49.864Z,98683.78
2022-12-15T17:36:28.325Z,98678.63
2022-12-15T17:39:01.239Z,98676.22
2022-12-15T17:41:58.660Z,98676.25
2022-12-15T17:44:36.245Z,98677.09
2022-12-15T17:47:09.077Z,98675.63
2022-12-15T17:49:41.729Z,98666.09
2022-12-15T17:52:28.448Z,98654.94
2022-12-15T17:55:04.290Z,98656.41
2022-12-15T17:57:35.870Z,98656.69
2022-12-15T18:00:22.359Z,98656.81
2022-12-15T18:02:55.529Z,98658.56
2022-12-15T18:05:30.885Z,98656.41
2022-12-15T18:08:10.638Z,98657.31
2022-12-15T18:10:42.754Z,98654.53
2022-12-15T18:13:14.232Z,98655.91
2022-12-15T18:15:47.116Z,98652.16
2022-12-15T18:18:20.845Z,98659.69
2022-12-15T18:20:57.007Z,98662.59
2022-12-15T18:23:32.620Z,98659.19
2022-12-15T18:26:07.529Z,98661.56
2022-12-15T18:28:39.171Z,98664.25
2022-12-15T18:31:17.645Z,98665.78
2022-12-15T18:33:50.027Z,98659.59
2022-12-15T18:36:22.559Z,98667.25
2022-12-15T18:38:54.159Z,98673.53
2022-12-15T18:41:26.457Z,98664.16
2022-12-15T18:43:58.950Z,98668.50
2022-12-15T18:46:31.003Z,98666.63
2022-12-15T18:49:02.762Z,98667.88
2022-12-15T18:51:34.530Z,98665.00
2022-12-15T18:54:15.787Z,98659.28
2022-12-15T18:56:48.357Z,98650.59
2022-12-15T18:59:19.950Z,98653.59
2022-12-15T19:01:51.756Z,98646.66
2022-12-15T19:04:23.445Z,98641.06
2022-12-15T19:06:55.378Z,98639.88
2022-12-15T19:09:30.375Z,98630.44
2022-12-15T19:12:20.377Z,98627.34
2022-12-15T19:14:55.203Z,98631.56
2022-12-15T19:17:45.797Z,98619.69
2022-12-15T19:20:38.587Z,98607.38
2022-12-15T19:23:13.185Z,98610.09
2022-12-15T19:25:46.760Z,98628.16
2022-12-15T19:28:21.465Z,98620.09
2022-12-15T19:30:53.169Z,98620.63
2022-12-15T19:33:25.133Z,98610.47
2022-12-15T19:35:57.705Z,98612.88
2022-12-15T19:38:34.358Z,98604.91
2022-12-15T19:41:05.949Z,98607.63
2022-12-15T19:43:37.604Z,98615.38
2022-12-15T19:46:20.415Z,98607.19
2022-12-15T19:48:54.267Z,98607.06
2022-12-15T19:51:26.225Z,98595.91
2022-12-15T19:53:58.305Z,98594.78
2022-12-15T19:56:30.290Z,98603.16
2022-12-15T19:59:02.960Z,98602.53
2022-12-15T20:01:34.773Z,98604.19
2022-12-15T20:04:06.483Z,98597.38
2022-12-15T20:06:38.576Z,98607.19
2022-12-15T20:09:18.442Z,98587.03
2022-12-15T20:11:50.043Z,98578.13
2022-12-15T20:14:22.359Z,98581.97
2022-12-15T20:16:54.035Z,98584.34
2022-12-15T20:19:25.770Z,98585.38
2022-12-15T20:22:01.600Z,98581.13
2022-12-15T20:24:33.596Z,98580.03
2022-12-15T20:27:12.287Z,98574.34
2022-12-15T20:29:43.956Z,98581.84
2022-12-15T20:32:19.424Z,98583.59
2022-12-15T20:34:51.028Z,98582.56
2022-12-15T20:37:28.894Z,98580.31
2022-12-15T20:40:00.634Z,98571.63
2022-12-15T20:42:32.184Z,98557.06
2022-12-15T20:45:04.188Z,98559.84
2022-12-15T20:47:39.951Z,98557.69
2022-12-15T20:50:25.152Z,98552.00
2022-12-15T20:52:56.583Z,98545.59
2022-12-15T20:55:28.684Z,98537.25
2022-12-15T20:58:00.298Z,98532.19
2022-12-15T21:00:32.277Z,98524.94
2022-12-15T21:03:16.761Z,98527.44
2022-12-15T21:05:49.659Z,98520.38
2022-12-15T21:08:27.484Z,98509.78
2022-12-15T21:11:13.780Z,98507.88
2022-12-15T21:13:47.471Z,98506.97
2022-12-15T21:16:22.753Z,98502.22
2022-12-15T21:19:19.296Z,98493.03
2022-12-15T21:21:52.011Z,98503.38
2022-12-15T21:24:25.645Z,98511.00
2022-12-15T21:26:57.349Z,98496.75
2022-12-15T21:29:29.515Z,98499.03
2022-12-15T21:32:01.165Z,98491.78
2022-12-15T21:34:32.886Z,98501.28
2022-12-15T21:37:06.365Z,98503.28
2022-12-15T21:39:38.009Z,98505.94
2022-12-15T21:42:16.158Z,98511.00
2022-12-15T21:44:48.212Z,98511.31
2022-12-15T21:47:48.855Z,98503.84
2022-12-15T21:50:20.403Z,98491.50
2022-12-15T21:52:52.223Z,98506.25
2022-12-15T21:55:26.958Z,98516.25
2022-12-15T21:57:58.515Z,98526.50
2022-12-15T22:00:30.189Z,98511.72
2022-12-15T22:03:01.924Z,98511.59
2022-12-15T22:05:33.684Z,98504.91
2022-12-15T22:08:20.217Z,98498.19
2022-12-15T22:10:52.146Z,98504.25
2022-12-15T22:13:23.789Z,98508.41
2022-12-15T22:15:55.466Z,98508.31
2022-12-15T22:18:27.250Z,98517.91
2022-12-15T22:20:58.810Z,98520.09
2022-12-15T22:23:30.382Z,98517.41
2022-12-15T22:26:02.101Z,98508.63
2022-12-15T22:28:34.324Z,98509.44
2022-12-15T22:31:06.756Z,98512.25
2022-12-15T22:33:38.406Z,98503.38
2022-12-15T22:36:09.994Z,98494.78
2022-12-15T22:38:41.601Z,98501.28
2022-12-15T22:41:19.466Z,98486.84
2022-12-15T22:43:56.259Z,98486.94
2022-12-15T22:46:27.976Z,98492.31
2022-12-15T22:48:59.566Z,98486.53
2022-12-15T22:51:31.133Z,98477.97
2022-12-15T22:54:02.741Z,98480.94
2022-12-15T22:56:38.208Z,98491.78
2022-12-15T22:59:16.277Z,98495.41
2022-12-15T23:01:47.984Z,98487.88
2022-12-15T23:04:19.650Z,98480.22
2022-12-15T23:06:51.712Z,98489.84
2022-12-15T23:09:23.470Z,98484.16
2022-12-15T23:11:55.724Z,98478.06
2022-12-15T23:14:46.433Z,98476.19
2022-12-15T23:17:17.987Z,98468.03
2022-12-15T23:19:49.614Z,98461.34
2022-12-15T23:22:21.521Z,98454.22
2022-12-15T23:24:53.051Z,98459.47
2022-12-15T23:27:24.624Z,98448.22
2022-12-15T23:29:56.176Z,98451.03
2022-12-15T23:32:27.720Z,98454.81
2022-12-15T23:34:59.290Z,98458.44
2022-12-15T23:37:30.904Z,98468.03
2022-12-15T23:40:02.656Z,98463.63
2022-12-15T23:42:35.258Z,98453.69
2022-12-15T23:45:07.549Z,98457.53
2022-12-15T23:47:39.960Z,98457.72
2022-12-15T23:50:11.716Z,98446.47
2022-12-15T23:52:43.280Z,98442.66
2022-12-15T23:55:16.987Z,98454.72
2022-12-15T23:57:48.579Z,98450.88
